sensor_id;sensor_type;location;lat;lon;timestamp;P1;durP1;ratioP1;P2;durP2;ratioP2
32146;SDS011;32190;49.112;8.598;2023-11-21T00:04:34;1.13;;;0.57;;
32146;SDS011;32190;49.112;8.598;2023-11-21T00:10:25;1.45;;;0.50;;
32146;SDS011;32190;49.112;8.598;2023-11-21T00:16:16;0.60;;;0.30;;
32146;SDS011;32190;49.112;8.598;2023-11-21T00:22:07;0.63;;;0.50;;
32146;SDS011;32190;49.112;8.598;2023-11-21T00:27:58;0.40;;;0.40;;
32146;SDS011;32190;49.112;8.598;2023-11-21T00:33:51;0.73;;;0.40;;
32146;SDS011;32190;49.112;8.598;2023-11-21T00:39:42;0.40;;;0.40;;
32146;SDS011;32190;49.112;8.598;2023-11-21T00:45:32;0.65;;;0.38;;
32146;SDS011;32190;49.112;8.598;2023-11-21T00:51:23;0.40;;;0.40;;
32146;SDS011;32190;49.112;8.598;2023-11-21T00:57:14;0.90;;;0.60;;
32146;SDS011;32190;49.112;8.598;2023-11-21T01:03:05;0.98;;;0.63;;
32146;SDS011;32190;49.112;8.598;2023-11-21T01:08:57;0.70;;;0.50;;
32146;SDS011;32190;49.112;8.598;2023-11-21T01:14:48;2.45;;;0.38;;
32146;SDS011;32190;49.112;8.598;2023-11-21T01:20:39;0.90;;;0.35;;
32146;SDS011;32190;49.112;8.598;2023-11-21T01:26:30;0.80;;;0.47;;
32146;SDS011;32190;49.112;8.598;2023-11-21T01:32:20;0.60;;;0.50;;
32146;SDS011;32190;49.112;8.598;2023-11-21T01:38:11;0.52;;;0.50;;
32146;SDS011;32190;49.112;8.598;2023-11-21T01:44:02;1.65;;;0.60;;
32146;SDS011;32190;49.112;8.598;2023-11-21T01:49:53;0.68;;;0.50;;
32146;SDS011;32190;49.112;8.598;2023-11-21T01:55:43;1.25;;;0.45;;
32146;SDS011;32190;49.112;8.598;2023-11-21T02:01:35;1.55;;;0.43;;
32146;SDS011;32190;49.112;8.598;2023-11-21T02:07:26;1.27;;;0.52;;
32146;SDS011;32190;49.112;8.598;2023-11-21T02:13:16;2.78;;;0.60;;
32146;SDS011;32190;49.112;8.598;2023-11-21T02:19:07;3.13;;;0.50;;
32146;SDS011;32190;49.112;8.598;2023-11-21T02:25:00;0.73;;;0.45;;
32146;SDS011;32190;49.112;8.598;2023-11-21T02:30:51;0.98;;;0.40;;
32146;SDS011;32190;49.112;8.598;2023-11-21T02:36:46;1.60;;;0.45;;
32146;SDS011;32190;49.112;8.598;2023-11-21T02:42:39;2.05;;;0.40;;
32146;SDS011;32190;49.112;8.598;2023-11-21T02:48:30;1.77;;;0.63;;
32146;SDS011;32190;49.112;8.598;2023-11-21T02:54:21;0.80;;;0.47;;
32146;SDS011;32190;49.112;8.598;2023-11-21T03:00:14;0.32;;;0.32;;
32146;SDS011;32190;49.112;8.598;2023-11-21T03:06:08;0.68;;;0.50;;
32146;SDS011;32190;49.112;8.598;2023-11-21T03:11:59;0.57;;;0.35;;
32146;SDS011;32190;49.112;8.598;2023-11-21T03:17:49;0.52;;;0.35;;
32146;SDS011;32190;49.112;8.598;2023-11-21T03:23:40;3.42;;;1.13;;
32146;SDS011;32190;49.112;8.598;2023-11-21T03:29:30;2.55;;;0.40;;
32146;SDS011;32190;49.112;8.598;2023-11-21T03:35:21;1.83;;;0.50;;
32146;SDS011;32190;49.112;8.598;2023-11-21T03:41:11;0.70;;;0.47;;
32146;SDS011;32190;49.112;8.598;2023-11-21T03:47:02;1.42;;;0.40;;
32146;SDS011;32190;49.112;8.598;2023-11-21T03:52:52;0.50;;;0.50;;
32146;SDS011;32190;49.112;8.598;2023-11-21T03:58:43;0.80;;;0.50;;
32146;SDS011;32190;49.112;8.598;2023-11-21T04:04:34;1.17;;;0.50;;
32146;SDS011;32190;49.112;8.598;2023-11-21T04:10:25;0.90;;;0.60;;
32146;SDS011;32190;49.112;8.598;2023-11-21T04:16:15;0.70;;;0.47;;
32146;SDS011;32190;49.112;8.598;2023-11-21T04:22:06;0.70;;;0.70;;
32146;SDS011;32190;49.112;8.598;2023-11-21T04:27:57;2.05;;;0.50;;
32146;SDS011;32190;49.112;8.598;2023-11-21T04:33:47;0.50;;;0.45;;
32146;SDS011;32190;49.112;8.598;2023-11-21T04:39:38;1.30;;;0.40;;
32146;SDS011;32190;49.112;8.598;2023-11-21T04:45:29;1.05;;;0.50;;
32146;SDS011;32190;49.112;8.598;2023-11-21T04:51:19;0.55;;;0.40;;
32146;SDS011;32190;49.112;8.598;2023-11-21T04:57:10;0.63;;;0.47;;
32146;SDS011;32190;49.112;8.598;2023-11-21T05:03:02;0.47;;;0.47;;
32146;SDS011;32190;49.112;8.598;2023-11-21T05:08:54;1.23;;;0.50;;
32146;SDS011;32190;49.112;8.598;2023-11-21T05:14:45;2.08;;;0.50;;
32146;SDS011;32190;49.112;8.598;2023-11-21T05:20:36;0.38;;;0.38;;
32146;SDS011;32190;49.112;8.598;2023-11-21T05:26:29;0.77;;;0.50;;
32146;SDS011;32190;49.112;8.598;2023-11-21T05:32:20;0.47;;;0.47;;
32146;SDS011;32190;49.112;8.598;2023-11-21T05:38:10;0.50;;;0.50;;
32146;SDS011;32190;49.112;8.598;2023-11-21T05:44:01;0.45;;;0.40;;
32146;SDS011;32190;49.112;8.598;2023-11-21T05:49:52;0.63;;;0.63;;
32146;SDS011;32190;49.112;8.598;2023-11-21T05:55:43;0.60;;;0.55;;
32146;SDS011;32190;49.112;8.598;2023-11-21T06:01:33;0.60;;;0.50;;
32146;SDS011;32190;49.112;8.598;2023-11-21T06:07:24;0.43;;;0.43;;
32146;SDS011;32190;49.112;8.598;2023-11-21T06:13:16;1.95;;;0.57;;
32146;SDS011;32190;49.112;8.598;2023-11-21T06:19:09;0.40;;;0.40;;
32146;SDS011;32190;49.112;8.598;2023-11-21T06:25:00;0.63;;;0.50;;
32146;SDS011;32190;49.112;8.598;2023-11-21T06:30:51;0.40;;;0.40;;
32146;SDS011;32190;49.112;8.598;2023-11-21T06:36:43;0.50;;;0.50;;
32146;SDS011;32190;49.112;8.598;2023-11-21T06:42:33;0.40;;;0.40;;
32146;SDS011;32190;49.112;8.598;2023-11-21T06:48:24;0.40;;;0.40;;
32146;SDS011;32190;49.112;8.598;2023-11-21T06:54:15;1.10;;;0.45;;
32146;SDS011;32190;49.112;8.598;2023-11-21T07:00:05;0.60;;;0.60;;
32146;SDS011;32190;49.112;8.598;2023-11-21T07:05:59;0.60;;;0.30;;
32146;SDS011;32190;49.112;8.598;2023-11-21T07:11:49;0.57;;;0.38;;
32146;SDS011;32190;49.112;8.598;2023-11-21T07:17:40;0.50;;;0.50;;
32146;SDS011;32190;49.112;8.598;2023-11-21T07:23:31;0.40;;;0.40;;
32146;SDS011;32190;49.112;8.598;2023-11-21T07:29:23;0.40;;;0.40;;
32146;SDS011;32190;49.112;8.598;2023-11-21T07:35:15;0.40;;;0.40;;
32146;SDS011;32190;49.112;8.598;2023-11-21T07:41:06;0.50;;;0.50;;
32146;SDS011;32190;49.112;8.598;2023-11-21T07:47:16;0.32;;;0.32;;
32146;SDS011;32190;49.112;8.598;2023-11-21T08:05:18;1.52;;;0.98;;
32146;SDS011;32190;49.112;8.598;2023-11-21T08:11:09;0.88;;;0.80;;
32146;SDS011;32190;49.112;8.598;2023-11-21T08:17:02;0.70;;;0.70;;
32146;SDS011;32190;49.112;8.598;2023-11-21T08:22:53;2.10;;;1.13;;
32146;SDS011;32190;49.112;8.598;2023-11-21T08:28:46;1.23;;;1.15;;
32146;SDS011;32190;49.112;8.598;2023-11-21T08:34:37;0.55;;;0.55;;
32146;SDS011;32190;49.112;8.598;2023-11-21T08:40:29;1.40;;;1.30;;
32146;SDS011;32190;49.112;8.598;2023-11-21T08:46:20;1.35;;;1.25;;
32146;SDS011;32190;49.112;8.598;2023-11-21T08:52:11;2.15;;;1.45;;
32146;SDS011;32190;49.112;8.598;2023-11-21T08:58:02;2.70;;;2.33;;
32146;SDS011;32190;49.112;8.598;2023-11-21T09:03:55;4.40;;;2.83;;
32146;SDS011;32190;49.112;8.598;2023-11-21T09:09:48;2.50;;;2.30;;
32146;SDS011;32190;49.112;8.598;2023-11-21T09:15:39;3.50;;;2.70;;
32146;SDS011;32190;49.112;8.598;2023-11-21T09:21:30;3.78;;;3.20;;
32146;SDS011;32190;49.112;8.598;2023-11-21T09:27:21;4.00;;;3.58;;
32146;SDS011;32190;49.112;8.598;2023-11-21T09:33:11;5.47;;;4.22;;
32146;SDS011;32190;49.112;8.598;2023-11-21T09:39:02;4.00;;;3.50;;
32146;SDS011;32190;49.112;8.598;2023-11-21T09:45:10;4.47;;;3.75;;
32146;SDS011;32190;49.112;8.598;2023-11-21T09:51:10;4.07;;;3.67;;
32146;SDS011;32190;49.112;8.598;2023-11-21T09:57:01;4.22;;;3.47;;
32146;SDS011;32190;49.112;8.598;2023-11-21T10:02:53;3.70;;;3.38;;
32146;SDS011;32190;49.112;8.598;2023-11-21T10:08:46;4.75;;;3.38;;
32146;SDS011;32190;49.112;8.598;2023-11-21T10:14:37;3.53;;;3.17;;
32146;SDS011;32190;49.112;8.598;2023-11-21T10:20:31;3.92;;;3.47;;
32146;SDS011;32190;49.112;8.598;2023-11-21T10:26:23;3.80;;;3.30;;
32146;SDS011;32190;49.112;8.598;2023-11-21T10:32:17;3.15;;;2.83;;
32146;SDS011;32190;49.112;8.598;2023-11-21T10:38:08;2.97;;;2.72;;
32146;SDS011;32190;49.112;8.598;2023-11-21T10:44:03;3.17;;;2.88;;
32146;SDS011;32190;49.112;8.598;2023-11-21T10:49:56;3.75;;;3.35;;
32146;SDS011;32190;49.112;8.598;2023-11-21T10:55:46;5.22;;;3.42;;
32146;SDS011;32190;49.112;8.598;2023-11-21T11:01:37;3.22;;;2.95;;
32146;SDS011;32190;49.112;8.598;2023-11-21T11:07:28;3.72;;;3.30;;
32146;SDS011;32190;49.112;8.598;2023-11-21T11:13:20;3.05;;;2.83;;
32146;SDS011;32190;49.112;8.598;2023-11-21T11:19:11;2.50;;;2.30;;
32146;SDS011;32190;49.112;8.598;2023-11-21T11:37:15;1.47;;;1.30;;
32146;SDS011;32190;49.112;8.598;2023-11-21T11:43:06;0.98;;;0.98;;
32146;SDS011;32190;49.112;8.598;2023-11-21T11:49:06;1.10;;;1.00;;
32146;SDS011;32190;49.112;8.598;2023-11-21T11:54:59;1.13;;;1.08;;
32146;SDS011;32190;49.112;8.598;2023-11-21T12:00:50;0.93;;;0.93;;
32146;SDS011;32190;49.112;8.598;2023-11-21T12:06:43;1.02;;;0.98;;
32146;SDS011;32190;49.112;8.598;2023-11-21T12:12:34;2.45;;;1.50;;
32146;SDS011;32190;49.112;8.598;2023-11-21T12:18:25;1.30;;;1.20;;
32146;SDS011;32190;49.112;8.598;2023-11-21T12:24:16;2.45;;;1.70;;
32146;SDS011;32190;49.112;8.598;2023-11-21T12:30:07;2.83;;;2.53;;
32146;SDS011;32190;49.112;8.598;2023-11-21T12:36:03;2.70;;;2.30;;
32146;SDS011;32190;49.112;8.598;2023-11-21T12:41:56;2.65;;;2.17;;
32146;SDS011;32190;49.112;8.598;2023-11-21T12:47:47;2.03;;;1.83;;
32146;SDS011;32190;49.112;8.598;2023-11-21T12:53:42;2.00;;;1.85;;
32146;SDS011;32190;49.112;8.598;2023-11-21T12:59:33;2.40;;;2.20;;
32146;SDS011;32190;49.112;8.598;2023-11-21T13:05:29;1.92;;;1.75;;
32146;SDS011;32190;49.112;8.598;2023-11-21T13:11:21;2.00;;;1.88;;
32146;SDS011;32190;49.112;8.598;2023-11-21T13:17:13;1.70;;;1.60;;
32146;SDS011;32190;49.112;8.598;2023-11-21T13:23:07;1.55;;;1.45;;
32146;SDS011;32190;49.112;8.598;2023-11-21T13:28:58;1.50;;;1.40;;
32146;SDS011;32190;49.112;8.598;2023-11-21T13:34:49;2.20;;;1.80;;
32146;SDS011;32190;49.112;8.598;2023-11-21T13:40:47;1.33;;;1.23;;
32146;SDS011;32190;49.112;8.598;2023-11-21T13:46:45;1.48;;;1.33;;
32146;SDS011;32190;49.112;8.598;2023-11-21T13:52:36;3.92;;;1.50;;
32146;SDS011;32190;49.112;8.598;2023-11-21T13:58:27;1.50;;;1.23;;
32146;SDS011;32190;49.112;8.598;2023-11-21T14:04:36;0.95;;;0.95;;
32146;SDS011;32190;49.112;8.598;2023-11-21T14:10:40;1.60;;;1.30;;
32146;SDS011;32190;49.112;8.598;2023-11-21T14:16:32;1.50;;;1.40;;
32146;SDS011;32190;49.112;8.598;2023-11-21T14:22:23;1.40;;;1.30;;
32146;SDS011;32190;49.112;8.598;2023-11-21T14:28:15;0.80;;;0.80;;
32146;SDS011;32190;49.112;8.598;2023-11-21T14:34:07;0.95;;;0.95;;
32146;SDS011;32190;49.112;8.598;2023-11-21T14:39:58;1.10;;;1.10;;
32146;SDS011;32190;49.112;8.598;2023-11-21T14:45:48;1.27;;;1.23;;
32146;SDS011;32190;49.112;8.598;2023-11-21T14:51:39;1.58;;;1.10;;
32146;SDS011;32190;49.112;8.598;2023-11-21T14:57:49;1.27;;;1.17;;
32146;SDS011;32190;49.112;8.598;2023-11-21T15:03:40;2.80;;;1.40;;
32146;SDS011;32190;49.112;8.598;2023-11-21T15:09:33;1.30;;;1.20;;
32146;SDS011;32190;49.112;8.598;2023-11-21T15:15:24;0.98;;;0.90;;
32146;SDS011;32190;49.112;8.598;2023-11-21T15:21:15;1.65;;;1.20;;
32146;SDS011;32190;49.112;8.598;2023-11-21T15:27:05;1.40;;;1.30;;
32146;SDS011;32190;49.112;8.598;2023-11-21T15:32:58;1.58;;;1.48;;
32146;SDS011;32190;49.112;8.598;2023-11-21T15:38:49;0.77;;;0.77;;
32146;SDS011;32190;49.112;8.598;2023-11-21T15:44:39;1.30;;;1.00;;
32146;SDS011;32190;49.112;8.598;2023-11-21T15:50:30;1.05;;;1.02;;
32146;SDS011;32190;49.112;8.598;2023-11-21T15:56:21;1.08;;;0.95;;
32146;SDS011;32190;49.112;8.598;2023-11-21T16:02:12;1.02;;;0.95;;
32146;SDS011;32190;49.112;8.598;2023-11-21T16:08:05;0.95;;;0.95;;
32146;SDS011;32190;49.112;8.598;2023-11-21T16:13:55;0.95;;;0.82;;
32146;SDS011;32190;49.112;8.598;2023-11-21T16:19:46;1.15;;;1.00;;
32146;SDS011;32190;49.112;8.598;2023-11-21T16:25:37;1.10;;;0.88;;
32146;SDS011;32190;49.112;8.598;2023-11-21T16:31:28;1.00;;;0.90;;
32146;SDS011;32190;49.112;8.598;2023-11-21T16:37:18;1.20;;;0.93;;
32146;SDS011;32190;49.112;8.598;2023-11-21T16:43:09;1.77;;;1.00;;
32146;SDS011;32190;49.112;8.598;2023-11-21T16:49:00;1.25;;;1.17;;
32146;SDS011;32190;49.112;8.598;2023-11-21T16:54:51;0.80;;;0.80;;
32146;SDS011;32190;49.112;8.598;2023-11-21T17:00:41;1.48;;;1.38;;
32146;SDS011;32190;49.112;8.598;2023-11-21T17:06:32;1.27;;;1.17;;
32146;SDS011;32190;49.112;8.598;2023-11-21T17:12:23;1.35;;;1.25;;
32146;SDS011;32190;49.112;8.598;2023-11-21T17:18:13;1.80;;;1.50;;
32146;SDS011;32190;49.112;8.598;2023-11-21T17:24:04;1.70;;;1.30;;
32146;SDS011;32190;49.112;8.598;2023-11-21T17:29:56;1.40;;;1.30;;
32146;SDS011;32190;49.112;8.598;2023-11-21T17:35:47;2.45;;;1.17;;
32146;SDS011;32190;49.112;8.598;2023-11-21T17:41:39;1.58;;;1.48;;
32146;SDS011;32190;49.112;8.598;2023-11-21T17:47:30;2.10;;;1.38;;
32146;SDS011;32190;49.112;8.598;2023-11-21T17:53:20;1.70;;;1.60;;
32146;SDS011;32190;49.112;8.598;2023-11-21T17:59:12;3.33;;;1.75;;
32146;SDS011;32190;49.112;8.598;2023-11-21T18:05:06;2.17;;;1.52;;
32146;SDS011;32190;49.112;8.598;2023-11-21T18:11:02;1.70;;;1.58;;
32146;SDS011;32190;49.112;8.598;2023-11-21T18:16:55;1.90;;;1.73;;
32146;SDS011;32190;49.112;8.598;2023-11-21T18:22:46;4.22;;;2.08;;
32146;SDS011;32190;49.112;8.598;2023-11-21T18:28:36;5.40;;;2.78;;
32146;SDS011;32190;49.112;8.598;2023-11-21T18:34:29;9.20;;;4.82;;
32146;SDS011;32190;49.112;8.598;2023-11-21T18:40:20;10.15;;;4.18;;
32146;SDS011;32190;49.112;8.598;2023-11-21T18:46:11;5.45;;;3.10;;
32146;SDS011;32190;49.112;8.598;2023-11-21T18:52:01;5.15;;;3.13;;
32146;SDS011;32190;49.112;8.598;2023-11-21T18:57:53;5.28;;;3.50;;
32146;SDS011;32190;49.112;8.598;2023-11-21T19:03:44;3.28;;;2.90;;
32146;SDS011;32190;49.112;8.598;2023-11-21T19:09:35;2.70;;;1.92;;
32146;SDS011;32190;49.112;8.598;2023-11-21T19:15:26;2.53;;;2.22;;
32146;SDS011;32190;49.112;8.598;2023-11-21T19:21:18;3.22;;;2.72;;
32146;SDS011;32190;49.112;8.598;2023-11-21T19:27:09;5.03;;;2.30;;
32146;SDS011;32190;49.112;8.598;2023-11-21T19:33:00;3.80;;;2.65;;
32146;SDS011;32190;49.112;8.598;2023-11-21T19:38:55;4.85;;;2.45;;
32146;SDS011;32190;49.112;8.598;2023-11-21T19:44:46;2.92;;;2.35;;
32146;SDS011;32190;49.112;8.598;2023-11-21T19:50:37;3.03;;;2.38;;
32146;SDS011;32190;49.112;8.598;2023-11-21T19:56:28;3.83;;;2.65;;
32146;SDS011;32190;49.112;8.598;2023-11-21T20:02:18;4.22;;;3.00;;
32146;SDS011;32190;49.112;8.598;2023-11-21T20:08:09;3.55;;;2.78;;
32146;SDS011;32190;49.112;8.598;2023-11-21T20:14:01;3.85;;;2.55;;
32146;SDS011;32190;49.112;8.598;2023-11-21T20:19:51;3.30;;;2.55;;
32146;SDS011;32190;49.112;8.598;2023-11-21T20:25:42;3.28;;;2.15;;
32146;SDS011;32190;49.112;8.598;2023-11-21T20:31:32;3.53;;;2.63;;
32146;SDS011;32190;49.112;8.598;2023-11-21T20:37:23;4.40;;;2.30;;
32146;SDS011;32190;49.112;8.598;2023-11-21T20:43:13;4.40;;;1.98;;
32146;SDS011;32190;49.112;8.598;2023-11-21T20:49:04;2.45;;;2.13;;
32146;SDS011;32190;49.112;8.598;2023-11-21T20:54:54;3.90;;;1.77;;
32146;SDS011;32190;49.112;8.598;2023-11-21T21:00:45;3.17;;;2.03;;
32146;SDS011;32190;49.112;8.598;2023-11-21T21:06:37;1.90;;;1.70;;
32146;SDS011;32190;49.112;8.598;2023-11-21T21:12:28;2.47;;;1.90;;
32146;SDS011;32190;49.112;8.598;2023-11-21T21:18:18;3.08;;;2.30;;
32146;SDS011;32190;49.112;8.598;2023-11-21T21:24:11;3.55;;;2.90;;
32146;SDS011;32190;49.112;8.598;2023-11-21T21:30:02;3.75;;;2.63;;
32146;SDS011;32190;49.112;8.598;2023-11-21T21:35:54;4.85;;;2.35;;
32146;SDS011;32190;49.112;8.598;2023-11-21T21:41:45;3.05;;;2.75;;
32146;SDS011;32190;49.112;8.598;2023-11-21T21:47:36;3.78;;;2.83;;
32146;SDS011;32190;49.112;8.598;2023-11-21T21:53:26;3.08;;;2.72;;
32146;SDS011;32190;49.112;8.598;2023-11-21T21:59:17;2.42;;;2.22;;
32146;SDS011;32190;49.112;8.598;2023-11-21T22:05:11;1.73;;;1.63;;
32146;SDS011;32190;49.112;8.598;2023-11-21T22:11:02;3.58;;;2.95;;
32146;SDS011;32190;49.112;8.598;2023-11-21T22:16:52;7.22;;;3.50;;
32146;SDS011;32190;49.112;8.598;2023-11-21T22:22:43;3.47;;;2.63;;
32146;SDS011;32190;49.112;8.598;2023-11-21T22:28:34;5.75;;;3.20;;
32146;SDS011;32190;49.112;8.598;2023-11-21T22:34:25;3.30;;;2.90;;
32146;SDS011;32190;49.112;8.598;2023-11-21T22:40:15;4.90;;;3.45;;
32146;SDS011;32190;49.112;8.598;2023-11-21T22:46:06;6.20;;;3.05;;
32146;SDS011;32190;49.112;8.598;2023-11-21T22:51:57;6.72;;;3.20;;
32146;SDS011;32190;49.112;8.598;2023-11-21T22:57:48;5.47;;;3.67;;
32146;SDS011;32190;49.112;8.598;2023-11-21T23:03:38;4.20;;;3.53;;
32146;SDS011;32190;49.112;8.598;2023-11-21T23:09:29;3.88;;;3.17;;
32146;SDS011;32190;49.112;8.598;2023-11-21T23:15:19;3.10;;;2.72;;
32146;SDS011;32190;49.112;8.598;2023-11-21T23:21:11;1.75;;;1.65;;
32146;SDS011;32190;49.112;8.598;2023-11-21T23:27:01;5.10;;;1.75;;
32146;SDS011;32190;49.112;8.598;2023-11-21T23:32:52;1.48;;;1.35;;
32146;SDS011;32190;49.112;8.598;2023-11-21T23:38:42;1.65;;;1.55;;
32146;SDS011;32190;49.112;8.598;2023-11-21T23:44:33;1.35;;;1.15;;
32146;SDS011;32190;49.112;8.598;2023-11-21T23:50:25;2.00;;;1.23;;
32146;SDS011;32190;49.112;8.598;2023-11-21T23:56:15;1.55;;;1.30;;
